JAL1105 RJTT-RJFK
Flight info
| Callsign | JAL1105 |
|---|---|
| Flight time | N/A |
| Altitude | 40000 |
| Route | LAXAS Y56 TOHME Y54 TURFY Y24 SUC Y757 SPICA |
| Aircraft | A359/H-SDE2E3GHIJ3J4J5LM1ORWXY/LB1D1 |
Departure
| Time | 2026-02-18 11:52 |
|---|---|
| Airport | Tokyo Haneda International Airport (RJTT) |
Arrival
| Time | N/A |
|---|---|
| Airport | Kagoshima Airport (RJFK) |
| Time | Latitude | Longitude | Altitude | Speed | Heading |
|---|---|---|---|---|---|
| 2026-02-18 11:27 | 35.54720 | 139.78399 | 29 ft | 0 kts | 60° |
| 2026-02-18 11:33 | 35.54717 | 139.78393 | 29 ft | 2 kts | 60° |
| 2026-02-18 11:33 | 35.54697 | 139.78351 | 29 ft | 3 kts | 60° |
| 2026-02-18 11:33 | 35.54687 | 139.78330 | 26 ft | 3 kts | 60° |
| 2026-02-18 11:34 | 35.54677 | 139.78308 | 28 ft | 3 kts | 60° |
| 2026-02-18 11:34 | 35.54668 | 139.78289 | 28 ft | 3 kts | 73° |
| 2026-02-18 11:34 | 35.54664 | 139.78268 | 29 ft | 3 kts | 96° |
| 2026-02-18 11:34 | 35.54668 | 139.78248 | 28 ft | 4 kts | 120° |
| 2026-02-18 11:35 | 35.54678 | 139.78230 | 28 ft | 4 kts | 139° |
| 2026-02-18 11:35 | 35.54690 | 139.78218 | 30 ft | 3 kts | 150° |
| 2026-02-18 11:35 | 35.54691 | 139.78217 | 29 ft | 4 kts | 150° |
| 2026-02-18 11:39 | 35.54679 | 139.78226 | 30 ft | 5 kts | 150° |
| 2026-02-18 11:39 | 35.54629 | 139.78261 | 30 ft | 11 kts | 150° |
| 2026-02-18 11:40 | 35.54544 | 139.78320 | 30 ft | 17 kts | 150° |
| 2026-02-18 11:40 | 35.54429 | 139.78401 | 30 ft | 21 kts | 150° |
| 2026-02-18 11:40 | 35.54290 | 139.78500 | 31 ft | 25 kts | 149° |
| 2026-02-18 11:40 | 35.54127 | 139.78617 | 27 ft | 30 kts | 150° |
| 2026-02-18 11:41 | 35.53972 | 139.78727 | 26 ft | 25 kts | 150° |
| 2026-02-18 11:41 | 35.53677 | 139.78936 | 29 ft | 25 kts | 150° |
| 2026-02-18 11:41 | 35.53550 | 139.79027 | 29 ft | 10 kts | 149° |
| 2026-02-18 11:42 | 35.53482 | 139.79075 | 29 ft | 13 kts | 150° |
| 2026-02-18 11:42 | 35.53396 | 139.79144 | 28 ft | 16 kts | 134° |
| 2026-02-18 11:42 | 35.53377 | 139.79266 | 27 ft | 16 kts | 65° |
| 2026-02-18 11:42 | 35.53437 | 139.79392 | 30 ft | 18 kts | 60° |
| 2026-02-18 11:43 | 35.53502 | 139.79530 | 29 ft | 19 kts | 60° |
| 2026-02-18 11:43 | 35.53575 | 139.79684 | 31 ft | 23 kts | 60° |
| 2026-02-18 11:43 | 35.53654 | 139.79850 | 28 ft | 23 kts | 60° |
| 2026-02-18 11:43 | 35.53702 | 139.80003 | 27 ft | 14 kts | 103° |
| 2026-02-18 11:44 | 35.53643 | 139.80071 | 29 ft | 12 kts | 152° |
| 2026-02-18 11:44 | 35.53573 | 139.80118 | 33 ft | 12 kts | 149° |
| 2026-02-18 11:44 | 35.53491 | 139.80177 | 37 ft | 15 kts | 150° |
| 2026-02-18 11:44 | 35.53387 | 139.80251 | 41 ft | 19 kts | 150° |
| 2026-02-18 11:45 | 35.53265 | 139.80338 | 46 ft | 22 kts | 149° |
| 2026-02-18 11:45 | 35.53010 | 139.80517 | 49 ft | 14 kts | 156° |
| 2026-02-18 11:45 | 35.52934 | 139.80497 | 53 ft | 10 kts | 216° |
| 2026-02-18 11:46 | 35.52874 | 139.80430 | 48 ft | 13 kts | 223° |
| 2026-02-18 11:46 | 35.52801 | 139.80347 | 49 ft | 16 kts | 223° |
| 2026-02-18 11:46 | 35.52714 | 139.80248 | 49 ft | 18 kts | 223° |
| 2026-02-18 11:46 | 35.52618 | 139.80149 | 52 ft | 15 kts | 205° |
| 2026-02-18 11:47 | 35.52546 | 139.80179 | 52 ft | 12 kts | 134° |
| 2026-02-18 11:47 | 35.52487 | 139.80256 | 51 ft | 12 kts | 133° |
| 2026-02-18 11:47 | 35.52481 | 139.80264 | 52 ft | 0 kts | 133° |
| 2026-02-18 11:50 | 35.52475 | 139.80272 | 51 ft | 3 kts | 133° |
| 2026-02-18 11:51 | 35.52448 | 139.80307 | 52 ft | 8 kts | 132° |
| 2026-02-18 11:51 | 35.52434 | 139.80380 | 57 ft | 11 kts | 78° |
| 2026-02-18 11:51 | 35.52496 | 139.80457 | 55 ft | 26 kts | 41° |
| 2026-02-18 11:51 | 35.52854 | 139.80854 | 51 ft | 114 kts | 43° |
| 2026-02-18 11:52 | 35.53628 | 139.81733 | 223 ft | 176 kts | 40° |
| 2026-02-18 11:52 | 35.54512 | 139.82732 | 1154 ft | 170 kts | 43° |
| 2026-02-18 11:52 | 35.55294 | 139.83907 | 2052 ft | 192 kts | 66° |
| 2026-02-18 11:52 | 35.55489 | 139.85595 | 2513 ft | 214 kts | 97° |
| 2026-02-18 11:53 | 35.55066 | 139.87454 | 2872 ft | 237 kts | 110° |
| 2026-02-18 11:53 | 35.53841 | 139.91386 | 4205 ft | 256 kts | 112° |
| 2026-02-18 11:53 | 35.53196 | 139.93468 | 4867 ft | 265 kts | 115° |
| 2026-02-18 11:54 | 35.52248 | 139.95392 | 5551 ft | 268 kts | 134° |
| 2026-02-18 11:54 | 35.50787 | 139.96775 | 6284 ft | 264 kts | 160° |
| 2026-02-18 11:54 | 35.49021 | 139.97157 | 7018 ft | 257 kts | 189° |
| 2026-02-18 11:54 | 35.47366 | 139.96454 | 7766 ft | 253 kts | 216° |
| 2026-02-18 11:55 | 35.46138 | 139.94939 | 8541 ft | 252 kts | 232° |
| 2026-02-18 11:55 | 35.44758 | 139.93598 | 9297 ft | 259 kts | 211° |
| 2026-02-18 11:55 | 35.43115 | 139.92641 | 10066 ft | 262 kts | 209° |
| 2026-02-18 11:55 | 35.41428 | 139.91674 | 10520 ft | 276 kts | 210° |
| 2026-02-18 11:56 | 35.39646 | 139.90615 | 10799 ft | 294 kts | 210° |
| 2026-02-18 11:56 | 35.37852 | 139.89312 | 11052 ft | 306 kts | 222° |
| 2026-02-18 11:56 | 35.36298 | 139.87469 | 11351 ft | 316 kts | 231° |
| 2026-02-18 11:56 | 35.34934 | 139.85324 | 11883 ft | 320 kts | 237° |
| 2026-02-18 11:57 | 35.33664 | 139.83086 | 12554 ft | 321 kts | 238° |
| 2026-02-18 11:57 | 35.31218 | 139.78497 | 13813 ft | 323 kts | 240° |
| 2026-02-18 11:57 | 35.30010 | 139.76170 | 14342 ft | 325 kts | 241° |
| 2026-02-18 11:58 | 35.28803 | 139.73830 | 14918 ft | 326 kts | 241° |
| 2026-02-18 11:58 | 35.27592 | 139.71479 | 15483 ft | 327 kts | 241° |
| 2026-02-18 11:58 | 35.26376 | 139.69116 | 16069 ft | 328 kts | 241° |
| 2026-02-18 11:58 | 35.25161 | 139.66756 | 16664 ft | 329 kts | 241° |
| 2026-02-18 11:59 | 35.23938 | 139.64383 | 17213 ft | 331 kts | 241° |
| 2026-02-18 11:59 | 35.22708 | 139.61996 | 17789 ft | 332 kts | 242° |
| 2026-02-18 11:59 | 35.21472 | 139.59600 | 18299 ft | 334 kts | 242° |
| 2026-02-18 11:59 | 35.20231 | 139.57195 | 18799 ft | 335 kts | 242° |
| 2026-02-18 12:00 | 35.18988 | 139.54788 | 19293 ft | 336 kts | 242° |
| 2026-02-18 12:00 | 35.17737 | 139.52368 | 19770 ft | 337 kts | 242° |
| 2026-02-18 12:00 | 35.16498 | 139.49974 | 20235 ft | 338 kts | 242° |
| 2026-02-18 12:00 | 35.15222 | 139.47508 | 20710 ft | 340 kts | 242° |
| 2026-02-18 12:01 | 35.13958 | 139.45066 | 21174 ft | 341 kts | 243° |
| 2026-02-18 12:01 | 35.11435 | 139.40201 | 22106 ft | 343 kts | 243° |
| 2026-02-18 12:01 | 35.10155 | 139.37734 | 22573 ft | 344 kts | 243° |
| 2026-02-18 12:02 | 35.08873 | 139.35266 | 23004 ft | 345 kts | 243° |
| 2026-02-18 12:02 | 35.07584 | 139.32786 | 23441 ft | 346 kts | 243° |
| 2026-02-18 12:02 | 35.06290 | 139.30298 | 23791 ft | 348 kts | 243° |
| 2026-02-18 12:02 | 35.04989 | 139.27796 | 24134 ft | 350 kts | 243° |
| 2026-02-18 12:03 | 35.03779 | 139.25231 | 24486 ft | 348 kts | 248° |
| 2026-02-18 12:03 | 35.02889 | 139.22494 | 24847 ft | 346 kts | 256° |
| 2026-02-18 12:03 | 35.02261 | 139.19665 | 25216 ft | 346 kts | 259° |
| 2026-02-18 12:03 | 35.01744 | 139.16795 | 25600 ft | 347 kts | 260° |
| 2026-02-18 12:04 | 35.01281 | 139.13899 | 25989 ft | 348 kts | 261° |
| 2026-02-18 12:04 | 35.00833 | 139.10992 | 26390 ft | 350 kts | 261° |
| 2026-02-18 12:04 | 35.00376 | 139.08063 | 26777 ft | 352 kts | 261° |
| 2026-02-18 12:04 | 34.99905 | 139.05124 | 27200 ft | 354 kts | 261° |
| 2026-02-18 12:05 | 34.99420 | 139.02184 | 27633 ft | 355 kts | 261° |
| 2026-02-18 12:05 | 34.98695 | 138.96208 | 28576 ft | 358 kts | 265° |
| 2026-02-18 12:05 | 34.98495 | 138.93168 | 29044 ft | 360 kts | 266° |
| 2026-02-18 12:06 | 34.98325 | 138.90115 | 29503 ft | 362 kts | 267° |
| 2026-02-18 12:06 | 34.98170 | 138.87038 | 29925 ft | 365 kts | 267° |
| 2026-02-18 12:06 | 34.98016 | 138.83944 | 30326 ft | 366 kts | 266° |
| 2026-02-18 12:06 | 34.97860 | 138.80851 | 30821 ft | 365 kts | 266° |
| 2026-02-18 12:07 | 34.97703 | 138.77761 | 31326 ft | 364 kts | 266° |
| 2026-02-18 12:07 | 34.97542 | 138.74679 | 31787 ft | 364 kts | 266° |
| 2026-02-18 12:07 | 34.97380 | 138.71602 | 32193 ft | 364 kts | 266° |
| 2026-02-18 12:07 | 34.97272 | 138.69563 | 32448 ft | 364 kts | 266° |
| 2026-02-18 12:08 | 34.96884 | 138.62353 | 33379 ft | 363 kts | 265° |
| 2026-02-18 12:08 | 34.96774 | 138.60328 | 33804 ft | 359 kts | 265° |
| 2026-02-18 12:08 | 34.96611 | 138.57320 | 34356 ft | 353 kts | 265° |
| 2026-02-18 12:09 | 34.96448 | 138.54344 | 34771 ft | 351 kts | 265° |
| 2026-02-18 12:09 | 34.96121 | 138.48432 | 35499 ft | 348 kts | 265° |
| 2026-02-18 12:09 | 34.95958 | 138.45499 | 35880 ft | 346 kts | 265° |
| 2026-02-18 12:10 | 34.95795 | 138.42574 | 36272 ft | 345 kts | 265° |
| 2026-02-18 12:10 | 34.95632 | 138.39667 | 36665 ft | 343 kts | 265° |
| 2026-02-18 12:10 | 34.95470 | 138.36780 | 37043 ft | 341 kts | 265° |
| 2026-02-18 12:10 | 34.95307 | 138.33902 | 37421 ft | 340 kts | 265° |
| 2026-02-18 12:11 | 34.95138 | 138.31026 | 37779 ft | 339 kts | 265° |
| 2026-02-18 12:11 | 34.94971 | 138.28166 | 38172 ft | 337 kts | 265° |
| 2026-02-18 12:11 | 34.94809 | 138.25328 | 38605 ft | 335 kts | 265° |
| 2026-02-18 12:11 | 34.94650 | 138.22500 | 38853 ft | 335 kts | 265° |
| 2026-02-18 12:12 | 34.94489 | 138.19662 | 39022 ft | 335 kts | 266° |
| 2026-02-18 12:12 | 34.94331 | 138.16833 | 39183 ft | 336 kts | 265° |
| 2026-02-18 12:12 | 34.94168 | 138.14030 | 39337 ft | 337 kts | 265° |
| 2026-02-18 12:12 | 34.93999 | 138.11180 | 39493 ft | 338 kts | 265° |
| 2026-02-18 12:13 | 34.93834 | 138.08280 | 39645 ft | 339 kts | 266° |
| 2026-02-18 12:13 | 34.93529 | 138.02530 | 39921 ft | 341 kts | 266° |
| 2026-02-18 12:13 | 34.93369 | 137.99651 | 39935 ft | 340 kts | 265° |
| 2026-02-18 12:14 | 34.93008 | 137.93948 | 39949 ft | 339 kts | 265° |
| 2026-02-18 12:14 | 34.92663 | 137.88227 | 39950 ft | 338 kts | 265° |
| 2026-02-18 12:15 | 34.92288 | 137.82511 | 39958 ft | 338 kts | 265° |
| 2026-02-18 12:15 | 34.91901 | 137.76789 | 39968 ft | 339 kts | 265° |
| 2026-02-18 12:16 | 34.91530 | 137.71069 | 39981 ft | 338 kts | 264° |
| 2026-02-18 12:16 | 34.90665 | 137.65434 | 39986 ft | 340 kts | 257° |
| 2026-02-18 12:17 | 34.88319 | 137.57262 | 39986 ft | 341 kts | 253° |
| 2026-02-18 12:18 | 34.86635 | 137.51860 | 39997 ft | 341 kts | 253° |
| 2026-02-18 12:18 | 34.84979 | 137.46460 | 40007 ft | 341 kts | 254° |
| 2026-02-18 12:19 | 34.83401 | 137.41030 | 40009 ft | 339 kts | 255° |
| 2026-02-18 12:19 | 34.81872 | 137.35605 | 40011 ft | 339 kts | 255° |
| 2026-02-18 12:20 | 34.80333 | 137.30182 | 40019 ft | 339 kts | 255° |
| 2026-02-18 12:20 | 34.78793 | 137.24808 | 40021 ft | 339 kts | 255° |
| 2026-02-18 12:21 | 34.77235 | 137.19397 | 40034 ft | 339 kts | 255° |
| 2026-02-18 12:21 | 34.75002 | 137.11665 | 40055 ft | 338 kts | 255° |
| 2026-02-18 12:22 | 34.73444 | 137.06276 | 40067 ft | 338 kts | 255° |
| 2026-02-18 12:22 | 34.71884 | 137.00891 | 40077 ft | 337 kts | 255° |
| 2026-02-18 12:23 | 34.70006 | 136.95635 | 40079 ft | 343 kts | 249° |
| 2026-02-18 12:23 | 34.67307 | 136.90781 | 40082 ft | 350 kts | 242° |
| 2026-02-18 12:24 | 34.64296 | 136.86127 | 40082 ft | 350 kts | 241° |
| 2026-02-18 12:24 | 34.61253 | 136.81514 | 40083 ft | 349 kts | 242° |
| 2026-02-18 12:25 | 34.56738 | 136.74591 | 40085 ft | 348 kts | 242° |
| 2026-02-18 12:26 | 34.53748 | 136.69982 | 40087 ft | 347 kts | 242° |
| 2026-02-18 12:26 | 34.50759 | 136.65380 | 40091 ft | 347 kts | 242° |
| 2026-02-18 12:27 | 34.47773 | 136.60789 | 40089 ft | 347 kts | 242° |
| 2026-02-18 12:27 | 34.44783 | 136.56207 | 40102 ft | 347 kts | 242° |
| 2026-02-18 12:28 | 34.41799 | 136.51629 | 40094 ft | 346 kts | 242° |
| 2026-02-18 12:28 | 34.38862 | 136.47079 | 40105 ft | 345 kts | 242° |
| 2026-02-18 12:29 | 34.35894 | 136.42502 | 40099 ft | 346 kts | 242° |
| 2026-02-18 12:29 | 34.31394 | 136.35669 | 40106 ft | 346 kts | 242° |
| 2026-02-18 12:30 | 34.28392 | 136.31110 | 40094 ft | 345 kts | 242° |
| 2026-02-18 12:30 | 34.25405 | 136.26565 | 40123 ft | 345 kts | 241° |
| 2026-02-18 12:31 | 34.22387 | 136.22052 | 40101 ft | 344 kts | 242° |
| 2026-02-18 12:31 | 34.19421 | 136.17528 | 40118 ft | 344 kts | 242° |
| 2026-02-18 12:32 | 34.16442 | 136.13002 | 40118 ft | 345 kts | 242° |
| 2026-02-18 12:32 | 34.13444 | 136.08502 | 40128 ft | 345 kts | 241° |
| 2026-02-18 12:33 | 34.08962 | 136.01751 | 40134 ft | 344 kts | 242° |
| 2026-02-18 12:34 | 34.05962 | 135.97236 | 40125 ft | 344 kts | 241° |
| 2026-02-18 12:34 | 34.02993 | 135.92771 | 40124 ft | 344 kts | 241° |
| 2026-02-18 12:35 | 34.00003 | 135.88266 | 40128 ft | 344 kts | 241° |
| 2026-02-18 12:35 | 33.97025 | 135.83764 | 40129 ft | 342 kts | 242° |
| 2026-02-18 12:36 | 33.94088 | 135.79257 | 40122 ft | 343 kts | 242° |
| 2026-02-18 12:36 | 33.91138 | 135.74750 | 40141 ft | 343 kts | 242° |
| 2026-02-18 12:37 | 33.88150 | 135.70257 | 40126 ft | 344 kts | 242° |
| 2026-02-18 12:37 | 33.83589 | 135.63563 | 40126 ft | 345 kts | 240° |
| 2026-02-18 12:38 | 33.80556 | 135.59123 | 40118 ft | 343 kts | 241° |
| 2026-02-18 12:38 | 33.77555 | 135.54672 | 40116 ft | 342 kts | 241° |
| 2026-02-18 12:39 | 33.74574 | 135.50213 | 40117 ft | 342 kts | 242° |
| 2026-02-18 12:39 | 33.71595 | 135.45743 | 40100 ft | 343 kts | 241° |
| 2026-02-18 12:40 | 33.68591 | 135.41299 | 40103 ft | 343 kts | 241° |
| 2026-02-18 12:40 | 33.65588 | 135.36862 | 40098 ft | 342 kts | 241° |
| 2026-02-18 12:41 | 33.61096 | 135.30209 | 40099 ft | 342 kts | 241° |
| 2026-02-18 12:42 | 33.58102 | 135.25780 | 40108 ft | 342 kts | 241° |
| 2026-02-18 12:42 | 33.55106 | 135.21353 | 40119 ft | 342 kts | 241° |
| 2026-02-18 12:43 | 33.52108 | 135.16928 | 40131 ft | 342 kts | 241° |
| 2026-02-18 12:43 | 33.49112 | 135.12510 | 40143 ft | 342 kts | 241° |
| 2026-02-18 12:44 | 33.46112 | 135.08093 | 40168 ft | 342 kts | 240° |
| 2026-02-18 12:44 | 33.43111 | 135.03680 | 40172 ft | 342 kts | 241° |
| 2026-02-18 12:45 | 33.40131 | 134.99302 | 40168 ft | 342 kts | 240° |
| 2026-02-18 12:45 | 33.35629 | 134.92692 | 40160 ft | 342 kts | 240° |
| 2026-02-18 12:46 | 33.32630 | 134.88284 | 40144 ft | 342 kts | 240° |
| 2026-02-18 12:46 | 33.29627 | 134.83879 | 40149 ft | 342 kts | 240° |
| 2026-02-18 12:47 | 33.26621 | 134.79479 | 40147 ft | 342 kts | 240° |
| 2026-02-18 12:47 | 33.23614 | 134.75082 | 40151 ft | 342 kts | 240° |
| 2026-02-18 12:48 | 33.20602 | 134.70685 | 40151 ft | 342 kts | 240° |
| 2026-02-18 12:48 | 33.17713 | 134.66215 | 40152 ft | 336 kts | 245° |
| 2026-02-18 12:49 | 33.14825 | 134.58771 | 40161 ft | 327 kts | 255° |
| 2026-02-18 12:50 | 33.13517 | 134.53579 | 40162 ft | 327 kts | 256° |
| 2026-02-18 12:50 | 33.12276 | 134.48365 | 40161 ft | 327 kts | 256° |
| 2026-02-18 12:51 | 33.11018 | 134.43152 | 40167 ft | 327 kts | 256° |
| 2026-02-18 12:51 | 33.09740 | 134.37942 | 40169 ft | 327 kts | 256° |
| 2026-02-18 12:52 | 33.08451 | 134.32733 | 40171 ft | 328 kts | 256° |
| 2026-02-18 12:52 | 33.07159 | 134.27522 | 40175 ft | 328 kts | 256° |
| 2026-02-18 12:53 | 33.05865 | 134.22302 | 40173 ft | 328 kts | 256° |
| 2026-02-18 12:53 | 33.03965 | 134.14452 | 40179 ft | 329 kts | 256° |
| 2026-02-18 12:54 | 33.02700 | 134.09215 | 40185 ft | 329 kts | 256° |
| 2026-02-18 12:54 | 33.01429 | 134.03976 | 40186 ft | 329 kts | 256° |
| 2026-02-18 12:55 | 33.00152 | 133.98735 | 40184 ft | 329 kts | 256° |
| 2026-02-18 12:55 | 32.98872 | 133.93489 | 40184 ft | 330 kts | 256° |
| 2026-02-18 12:56 | 32.97589 | 133.88245 | 40191 ft | 330 kts | 256° |
| 2026-02-18 12:56 | 32.96302 | 133.82994 | 40190 ft | 330 kts | 256° |
| 2026-02-18 12:57 | 32.94588 | 133.76014 | 40189 ft | 330 kts | 256° |
| 2026-02-18 12:58 | 32.93297 | 133.70772 | 40190 ft | 330 kts | 256° |
| 2026-02-18 12:58 | 32.92006 | 133.65537 | 40187 ft | 330 kts | 256° |
| 2026-02-18 12:59 | 32.90712 | 133.60303 | 40190 ft | 330 kts | 256° |
| 2026-02-18 12:59 | 32.89418 | 133.55071 | 40191 ft | 329 kts | 256° |
| 2026-02-18 13:00 | 32.88123 | 133.49845 | 40194 ft | 329 kts | 256° |
| 2026-02-18 13:00 | 32.86823 | 133.44622 | 40198 ft | 329 kts | 256° |
| 2026-02-18 13:01 | 32.84870 | 133.36797 | 40201 ft | 329 kts | 256° |
| 2026-02-18 13:01 | 32.83567 | 133.31580 | 40200 ft | 329 kts | 256° |
| 2026-02-18 13:02 | 32.82263 | 133.26369 | 40201 ft | 329 kts | 256° |
| 2026-02-18 13:02 | 32.80955 | 133.21157 | 40203 ft | 329 kts | 256° |
| 2026-02-18 13:03 | 32.79647 | 133.15950 | 40203 ft | 329 kts | 256° |
| 2026-02-18 13:03 | 32.78346 | 133.10782 | 40204 ft | 329 kts | 256° |
| 2026-02-18 13:04 | 32.77035 | 133.05583 | 40207 ft | 328 kts | 256° |
| 2026-02-18 13:04 | 32.75594 | 133.00389 | 40203 ft | 330 kts | 253° |
| 2026-02-18 13:05 | 32.72340 | 132.93132 | 40205 ft | 335 kts | 246° |
| 2026-02-18 13:06 | 32.69902 | 132.88406 | 40207 ft | 336 kts | 246° |
| 2026-02-18 13:06 | 32.67450 | 132.83674 | 40203 ft | 336 kts | 246° |
| 2026-02-18 13:07 | 32.65012 | 132.78932 | 40200 ft | 337 kts | 246° |
| 2026-02-18 13:07 | 32.62580 | 132.74183 | 40203 ft | 337 kts | 246° |
| 2026-02-18 13:08 | 32.60143 | 132.69426 | 40204 ft | 338 kts | 246° |
| 2026-02-18 13:08 | 32.57699 | 132.64663 | 40203 ft | 338 kts | 246° |
| 2026-02-18 13:09 | 32.54021 | 132.57510 | 40206 ft | 339 kts | 246° |
| 2026-02-18 13:09 | 32.51564 | 132.52739 | 40213 ft | 339 kts | 246° |
| 2026-02-18 13:10 | 32.49099 | 132.47957 | 40209 ft | 340 kts | 246° |
| 2026-02-18 13:10 | 32.46630 | 132.43176 | 40215 ft | 341 kts | 246° |
| 2026-02-18 13:11 | 32.44154 | 132.38387 | 40212 ft | 341 kts | 246° |
| 2026-02-18 13:11 | 32.41673 | 132.33594 | 40216 ft | 342 kts | 246° |
| 2026-02-18 13:12 | 32.39187 | 132.28797 | 40215 ft | 342 kts | 246° |
| 2026-02-18 13:12 | 32.36695 | 132.23994 | 40219 ft | 343 kts | 246° |
| 2026-02-18 13:13 | 32.34217 | 132.19230 | 39116 ft | 342 kts | 246° |
| 2026-02-18 13:13 | 32.32968 | 132.16822 | 38265 ft | 345 kts | 246° |
| 2026-02-18 13:13 | 32.31706 | 132.14391 | 37365 ft | 348 kts | 246° |
| 2026-02-18 13:14 | 32.30451 | 132.11976 | 36576 ft | 350 kts | 246° |
| 2026-02-18 13:14 | 32.29174 | 132.09526 | 35837 ft | 350 kts | 246° |
| 2026-02-18 13:14 | 32.27895 | 132.07075 | 35089 ft | 351 kts | 246° |
| 2026-02-18 13:14 | 32.26611 | 132.04614 | 34249 ft | 354 kts | 246° |
| 2026-02-18 13:15 | 32.25315 | 132.02126 | 33287 ft | 357 kts | 246° |
| 2026-02-18 13:15 | 32.24010 | 131.99621 | 32357 ft | 359 kts | 246° |
| 2026-02-18 13:15 | 32.22697 | 131.97105 | 31458 ft | 362 kts | 245° |
| 2026-02-18 13:15 | 32.21366 | 131.94551 | 30488 ft | 367 kts | 245° |
| 2026-02-18 13:16 | 32.20019 | 131.91963 | 29360 ft | 373 kts | 245° |
| 2026-02-18 13:16 | 32.18656 | 131.89347 | 28514 ft | 373 kts | 244° |
| 2026-02-18 13:16 | 32.17298 | 131.86757 | 27805 ft | 370 kts | 244° |
| 2026-02-18 13:16 | 32.15946 | 131.84184 | 27082 ft | 368 kts | 244° |
| 2026-02-18 13:17 | 32.13252 | 131.79065 | 25621 ft | 367 kts | 243° |
| 2026-02-18 13:17 | 32.11909 | 131.76510 | 24888 ft | 367 kts | 243° |
| 2026-02-18 13:17 | 32.10565 | 131.73951 | 24153 ft | 367 kts | 243° |
| 2026-02-18 13:18 | 32.09220 | 131.71392 | 23329 ft | 369 kts | 242° |
| 2026-02-18 13:18 | 32.07864 | 131.68828 | 22547 ft | 368 kts | 242° |
| 2026-02-18 13:18 | 32.06512 | 131.66275 | 21789 ft | 366 kts | 242° |
| 2026-02-18 13:18 | 32.05167 | 131.63732 | 21041 ft | 365 kts | 242° |
| 2026-02-18 13:19 | 32.03825 | 131.61193 | 20269 ft | 364 kts | 243° |
| 2026-02-18 13:19 | 32.02486 | 131.58658 | 19485 ft | 365 kts | 242° |
| 2026-02-18 13:19 | 32.01146 | 131.56120 | 18706 ft | 365 kts | 243° |
| 2026-02-18 13:19 | 31.99801 | 131.53573 | 17822 ft | 366 kts | 242° |
| 2026-02-18 13:20 | 31.98458 | 131.51027 | 16981 ft | 366 kts | 242° |
| 2026-02-18 13:20 | 31.97117 | 131.48488 | 16163 ft | 365 kts | 242° |
| 2026-02-18 13:20 | 31.95775 | 131.45949 | 15329 ft | 365 kts | 242° |
| 2026-02-18 13:20 | 31.94430 | 131.43406 | 14479 ft | 366 kts | 241° |
| 2026-02-18 13:21 | 31.91708 | 131.38315 | 12553 ft | 370 kts | 240° |
| 2026-02-18 13:21 | 31.90334 | 131.35754 | 11724 ft | 368 kts | 240° |
| 2026-02-18 13:21 | 31.88996 | 131.33265 | 11522 ft | 350 kts | 240° |
| 2026-02-18 13:22 | 31.87731 | 131.30914 | 11427 ft | 330 kts | 241° |
| 2026-02-18 13:22 | 31.86538 | 131.28694 | 11316 ft | 312 kts | 241° |
| 2026-02-18 13:22 | 31.85407 | 131.26589 | 11223 ft | 296 kts | 241° |
| 2026-02-18 13:22 | 31.84335 | 131.24591 | 11114 ft | 282 kts | 241° |
| 2026-02-18 13:23 | 31.83310 | 131.22678 | 11000 ft | 270 kts | 242° |
| 2026-02-18 13:23 | 31.82334 | 131.20854 | 10896 ft | 258 kts | 242° |
| 2026-02-18 13:23 | 31.81400 | 131.19094 | 10634 ft | 253 kts | 243° |
| 2026-02-18 13:23 | 31.80469 | 131.17335 | 10218 ft | 255 kts | 242° |
| 2026-02-18 13:24 | 31.79522 | 131.15553 | 9760 ft | 260 kts | 242° |
| 2026-02-18 13:24 | 31.78561 | 131.13751 | 9313 ft | 265 kts | 242° |
| 2026-02-18 13:24 | 31.77563 | 131.11888 | 8854 ft | 266 kts | 242° |
| 2026-02-18 13:24 | 31.76575 | 131.10052 | 8411 ft | 266 kts | 242° |
| 2026-02-18 13:25 | 31.74593 | 131.06377 | 7530 ft | 266 kts | 241° |
| 2026-02-18 13:25 | 31.73604 | 131.04534 | 7080 ft | 267 kts | 241° |
| 2026-02-18 13:25 | 31.72614 | 131.02687 | 6659 ft | 267 kts | 241° |
| 2026-02-18 13:26 | 31.71623 | 131.00842 | 6255 ft | 267 kts | 241° |
| 2026-02-18 13:26 | 31.70647 | 130.99025 | 5876 ft | 266 kts | 240° |
| 2026-02-18 13:26 | 31.69640 | 130.97169 | 5437 ft | 266 kts | 240° |
| 2026-02-18 13:26 | 31.68647 | 130.95337 | 5085 ft | 265 kts | 240° |
| 2026-02-18 13:27 | 31.67688 | 130.93574 | 4901 ft | 254 kts | 240° |
| 2026-02-18 13:27 | 31.66918 | 130.91773 | 4813 ft | 240 kts | 253° |
| 2026-02-18 13:27 | 31.66489 | 130.89923 | 4802 ft | 229 kts | 259° |
| 2026-02-18 13:27 | 31.66147 | 130.88116 | 4730 ft | 219 kts | 261° |
| 2026-02-18 13:28 | 31.66025 | 130.86412 | 4682 ft | 207 kts | 276° |
| 2026-02-18 13:28 | 31.66334 | 130.84791 | 4644 ft | 196 kts | 290° |
| 2026-02-18 13:28 | 31.66781 | 130.83340 | 4628 ft | 187 kts | 292° |
| 2026-02-18 13:28 | 31.67232 | 130.81937 | 4514 ft | 182 kts | 292° |
| 2026-02-18 13:29 | 31.68742 | 130.79690 | 4020 ft | 177 kts | 327° |
| 2026-02-18 13:29 | 31.69801 | 130.79017 | 3932 ft | 166 kts | 332° |
| 2026-02-18 13:29 | 31.70783 | 130.78408 | 3872 ft | 156 kts | 330° |
| 2026-02-18 13:30 | 31.71711 | 130.77779 | 3644 ft | 153 kts | 329° |
| 2026-02-18 13:30 | 31.72624 | 130.77156 | 3259 ft | 152 kts | 329° |
| 2026-02-18 13:30 | 31.73507 | 130.76555 | 3100 ft | 140 kts | 329° |
| 2026-02-18 13:30 | 31.74312 | 130.76013 | 2971 ft | 128 kts | 330° |
| 2026-02-18 13:31 | 31.75074 | 130.75503 | 2722 ft | 125 kts | 330° |
| 2026-02-18 13:31 | 31.75875 | 130.74968 | 2543 ft | 156 kts | 332° |
| 2026-02-18 13:31 | 31.77017 | 130.74202 | 2655 ft | 220 kts | 330° |
| 2026-02-18 13:31 | 31.78476 | 130.73205 | 2991 ft | 261 kts | 330° |
| 2026-02-18 13:32 | 31.80040 | 130.72129 | 3802 ft | 254 kts | 329° |
| 2026-02-18 13:32 | 31.81292 | 130.70852 | 4581 ft | 230 kts | 305° |
| 2026-02-18 13:32 | 31.81726 | 130.69085 | 4964 ft | 230 kts | 271° |
| 2026-02-18 13:32 | 31.81194 | 130.67309 | 5018 ft | 240 kts | 237° |
| 2026-02-18 13:33 | 31.78214 | 130.65420 | 4996 ft | 254 kts | 208° |
| 2026-02-18 13:33 | 31.76722 | 130.64267 | 4438 ft | 273 kts | 226° |
| 2026-02-18 13:33 | 31.75491 | 130.62477 | 3696 ft | 293 kts | 242° |
| 2026-02-18 13:34 | 31.74585 | 130.60326 | 3286 ft | 304 kts | 252° |
| 2026-02-18 13:34 | 31.73931 | 130.57997 | 3500 ft | 293 kts | 257° |
| 2026-02-18 13:34 | 31.73479 | 130.56009 | 4076 ft | 270 kts | 259° |
| 2026-02-18 13:34 | 31.73109 | 130.53995 | 4775 ft | 242 kts | 263° |
| 2026-02-18 13:35 | 31.72830 | 130.52075 | 4985 ft | 237 kts | 264° |
| 2026-02-18 13:35 | 31.72569 | 130.50101 | 4571 ft | 256 kts | 265° |
| 2026-02-18 13:35 | 31.72398 | 130.48079 | 4040 ft | 276 kts | 269° |
| 2026-02-18 13:35 | 31.72279 | 130.45797 | 3828 ft | 281 kts | 269° |
| 2026-02-18 13:36 | 31.72126 | 130.43559 | 4148 ft | 267 kts | 270° |
| 2026-02-18 13:36 | 31.72101 | 130.41488 | 4578 ft | 249 kts | 275° |
| 2026-02-18 13:36 | 31.72227 | 130.39464 | 4756 ft | 244 kts | 278° |
| 2026-02-18 13:36 | 31.72460 | 130.37479 | 4531 ft | 255 kts | 282° |
| 2026-02-18 13:37 | 31.72947 | 130.34791 | 4195 ft | 268 kts | 287° |